Impacts TAF Board
For situational awareness. Not to be used for flight planning purposes.
IDs:

KHOB - Hobbs Arpt, NM, US

Issued at 1123 UTC 30 Oct 2020
Updated at 1554 UTC 30 Oct 2020
Potential Impact None Slight Moderate High
Time1550Z 30/16Z 30/17Z 30/18Z 30/19Z 30/20Z 30/21Z 30/22Z 30/23Z 31/00Z 31/01Z 31/02Z 31/03Z 31/04Z>>
Type OBS PRVL PRVL PRVL PRVL PRVL PRVL PRVL PRVL PRVL PRVL PRVL PRVL PRVL
VIS 10 >6 >6 >6 >6 >6 >6 >6 >6 >6 >6 >6 >6 >6
CIG -- -- -- -- -- -- -- -- -- -- -- -- -- --
Cover SKC FEW FEW FEW FEW FEW FEW FEW FEW FEW FEW FEW FEW FEW
FltCat VFR VFR VFR VFR VFR VFR VFR VFR VFR VFR VFR VFR VFR VFR
WX -- -- -- -- -- -- -- -- -- -- -- -- -- --
WDir 170 150 150 150 150 150 150 150 150 150 150 150 150 150
WSpd 10 10 10 10 10 10 10 10 10 10 10 10 10 10
WGst -- -- -- -- -- -- -- -- -- -- -- -- -- --
Raw TAF
KHOB 301123Z 3012/3112 24006KT P6SM FEW250
  FM301500 15010KT P6SM FEW250


Raw METAR
KHOB 301550Z 17010KT 10SM SKC 13/02 A3032
KHOB 301450Z 19006KT 10SM SKC 09/03 A3032
KHOB 301350Z 21005KT 10SM SKC 02/00 A3030
KHOB 301250Z 21005KT 10SM SKC 03/M00 A3029

METAR Board
Radar Display
Forecast Discussion
For situational awareness. Not to be used for flight planning purposes.